Time;durP1;ratioP1;P1;durP2;ratioP2;P2;SDS_P1;SDS_P2;PMS_P1;PMS_P2;Temp;Humidity;BMP_temperature;BMP_pressure;BME280_temperature;BME280_humidity;BME280_pressure;Samples;Min_cycle;Max_cycle;Signal;HPM_P1;HPM_P2
2022/02/07 00:00:56;;;;;;;;;;;;;;;;;;2100483;28;19925;-76
2022/02/07 00:02:01;;;;;;;;;;;;;;;;;;2092030;28;19956;-77
2022/02/07 00:03:14;;;;;;;;;;;;;;;;;;2092523;28;20068;-76
2022/02/07 00:04:22;;;;;;;;;;;;;;;;;;2098334;28;20002;-76
2022/02/07 00:05:26;;;;;;;;;;;;;;;;;;2091862;28;19984;-76
2022/02/07 00:06:30;;;;;;;;;;;;;;;;;;2084221;28;19960;-76
2022/02/07 00:07:31;;;;;;;;;;;;;;;;;;2091883;28;19937;-76
2022/02/07 00:08:35;;;;;;;;;;;;;;;;;;2092484;28;20841;-77
2022/02/07 00:09:38;;;;;;;;;;;;;;;;;;2091932;28;19967;-76
2022/02/07 00:10:40;;;;;;;;;;;;;;;;;;2091707;28;19929;-77
2022/02/07 00:11:42;;;;;;;;;;;;;;;;;;2091899;28;19929;-76
2022/02/07 00:12:46;;;;;;;;;;;;;;;;;;2086710;28;20815;-76
2022/02/07 00:13:50;;;;;;;;;;;;;;;;;;2100253;28;19932;-76
2022/02/07 00:14:52;;;;;;;;;;;;;;;;;;2101411;28;20026;-75
2022/02/07 00:15:55;;;;;;;;;;;;;;;;;;2101470;28;19929;-75
2022/02/07 00:16:58;;;;;;;;;;;;;;;;;;2101618;28;19925;-77
2022/02/07 00:18:00;;;;;;;;;;;;;;;;;;2101620;28;19929;-75
2022/02/07 00:19:05;;;;;;;;;;;;;;;;;;2102204;28;19934;-75
2022/02/07 00:20:19;;;;;;;;;;;;;;;;;;2102182;28;20050;-78
2022/02/07 00:21:20;;;;;;;;;;;;;;;;;;2101959;28;20728;-76
2022/02/07 00:22:23;;;;;;;;;;;;;;;;;;2101514;28;20724;-77
2022/02/07 00:23:26;;;;;;;;;;;;;;;;;;2093722;28;19983;-76
2022/02/07 00:24:29;;;;;;;;;;;;;;;;;;2094058;28;20605;-76
2022/02/07 00:25:32;;;;;;;;;;;;;;;;;;2093189;28;19925;-76
2022/02/07 00:26:35;;;;;;;;;;;;;;;;;;2101660;28;19925;-76
2022/02/07 00:27:39;;;;;;;;;;;;;;;;;;2101250;28;20625;-77
2022/02/07 00:28:44;;;;;;;;;;;;;;;;;;2101530;28;19929;-77
2022/02/07 00:29:45;;;;;;;;;;;;;;;;;;2101569;28;19999;-76
2022/02/07 00:30:47;;;;;;;;;;;;;;;;;;2101454;28;20054;-76
2022/02/07 00:31:50;;;;;;;;;;;;;;;;;;2093486;28;20702;-76
2022/02/07 00:32:52;;;;;;;;;;;;;;;;;;2101695;28;20062;-76
2022/02/07 00:33:54;;;;;;;;;;;;;;;;;;2102008;28;19925;-77
2022/02/07 00:34:57;;;;;;;;;;;;;;;;;;2101359;28;20076;-78
2022/02/07 00:36:01;;;;;;;;;;;;;;;;;;2101675;28;19983;-76
2022/02/07 00:37:05;;;;;;;;;;;;;;;;;;2102235;28;19925;-76
2022/02/07 00:38:16;;;;;;;;;;;;;;;;;;2101657;28;19936;-76
2022/02/07 00:39:28;;;;;;;;;;;;;;;;;;2101183;28;19929;-77
2022/02/07 00:40:45;;;;;;;;;;;;;;;;;;2095431;28;20717;-76
2022/02/07 00:42:04;;;;;;;;;;;;;;;;;;2101707;28;20002;-76
2022/02/07 00:43:28;;;;;;;;;;;;;;;;;;2102338;28;19929;-76
2022/02/07 00:44:32;;;;;;;;;;;;;;;;;;2100892;28;19951;-75
2022/02/07 00:46:58;;;;;;;;;;;;;;;;;;2102081;28;19925;-77
2022/02/07 00:48:01;;;;;;;;;;;;;;;;;;2101360;28;19933;-76
2022/02/07 00:49:04;;;;;;;;;;;;;;;;;;2101368;28;20768;-76
2022/02/07 00:50:09;;;;;;;;;;;;;;;;;;2101806;28;19929;-76
2022/02/07 00:51:12;;;;;;;;;;;;;;;;;;2100913;28;19929;-76
2022/02/07 00:52:16;;;;;;;;;;;;;;;;;;2100821;28;19929;-75
2022/02/07 00:53:18;;;;;;;;;;;;;;;;;;2100327;28;19980;-76
2022/02/07 00:54:20;;;;;;;;;;;;;;;;;;2092172;28;19929;-75
2022/02/07 00:55:23;;;;;;;;;;;;;;;;;;2092366;28;19929;-76
2022/02/07 00:56:27;;;;;;;;;;;;;;;;;;2100200;28;20055;-76
2022/02/07 00:57:30;;;;;;;;;;;;;;;;;;2100395;28;19925;-76
2022/02/07 00:58:33;;;;;;;;;;;;;;;;;;2100625;28;19933;-76
2022/02/07 00:59:39;;;;;;;;;;;;;;;;;;2100565;28;20031;-76
2022/02/07 01:00:41;;;;;;;;;;;;;;;;;;2100544;28;20054;-76
2022/02/07 01:01:43;;;;;;;;;;;;;;;;;;2101025;28;20300;-76
2022/02/07 01:02:47;;;;;;;;;;;;;;;;;;2101036;28;20050;-77
2022/02/07 01:03:51;;;;;;;;;;;;;;;;;;2100890;28;19929;-75
2022/02/07 01:04:53;;;;;;;;;;;;;;;;;;2100947;28;19979;-75
2022/02/07 01:05:56;;;;;;;;;;;;;;;;;;2092867;28;19929;-76
2022/02/07 01:07:01;;;;;;;;;;;;;;;;;;2100802;28;20014;-76
2022/02/07 01:08:05;;;;;;;;;;;;;;;;;;2099939;28;20765;-76
2022/02/07 01:09:21;;;;;;;;;;;;;;;;;;2100551;28;19971;-77
2022/02/07 01:11:15;;;;;;;;;;;;;;;;;;2101778;28;19929;-76
2022/02/07 01:13:36;;;;;;;;;;;;;;;;;;2099529;28;19929;-76
2022/02/07 01:19:51;;;;;;;;;;;;;;;;;;2107246;28;19929;-76
2022/02/07 01:23:07;;;;;;;;;;;;;;;;;;2091972;28;20045;-76
2022/02/07 01:54:06;;;;;;;;;;;;;;;;;;2110115;28;20051;-76
2022/02/07 01:54:45;;;;;;;;;;;;;;;;;;2103699;28;20777;-76
2022/02/07 01:55:56;;;;;;;;;;;;;;;;;;2110023;28;19944;-75
2022/02/07 01:57:00;;;;;;;;;;;;;;;;;;2109632;28;19940;-76
2022/02/07 01:58:03;;;;;;;;;;;;;;;;;;2101746;28;19925;-77
2022/02/07 01:59:06;;;;;;;;;;;;;;;;;;2101978;28;19925;-76
2022/02/07 02:00:08;;;;;;;;;;;;;;;;;;2109424;28;20054;-76
2022/02/07 02:01:12;;;;;;;;;;;;;;;;;;2110067;28;19987;-76
2022/02/07 02:02:15;;;;;;;;;;;;;;;;;;2110020;28;19928;-77
2022/02/07 02:03:16;;;;;;;;;;;;;;;;;;2109418;28;19924;-77
2022/02/07 02:04:20;;;;;;;;;;;;;;;;;;2109340;28;19928;-76
2022/02/07 02:05:23;;;;;;;;;;;;;;;;;;2109738;28;19931;-76
2022/02/07 02:06:25;;;;;;;;;;;;;;;;;;2109819;28;20034;-76
2022/02/07 02:07:28;;;;;;;;;;;;;;;;;;2109358;28;19936;-76
2022/02/07 02:08:33;;;;;;;;;;;;;;;;;;2109405;28;20198;-77
2022/02/07 02:09:37;;;;;;;;;;;;;;;;;;2110136;28;19928;-76
2022/02/07 02:10:47;;;;;;;;;;;;;;;;;;2109458;28;19928;-76
2022/02/07 02:11:52;;;;;;;;;;;;;;;;;;2102705;28;20078;-77
2022/02/07 02:13:05;;;;;;;;;;;;;;;;;;2101640;28;19928;-76
2022/02/07 02:15:34;;;;;;;;;;;;;;;;;;2109442;28;20739;-76
2022/02/07 02:19:31;;;;;;;;;;;;;;;;;;2109713;28;20022;-77
2022/02/07 02:21:11;;;;;;;;;;;;;;;;;;2109690;28;19997;-77
2022/02/07 02:22:52;;;;;;;;;;;;;;;;;;2109479;28;19931;-76
2022/02/07 02:33:42;;;;;;;;;;;;;;;;;;2109918;28;19935;-76
2022/02/07 02:37:07;;;;;;;;;;;;;;;;;;2109894;28;19935;-76
2022/02/07 02:46:05;;;;;;;;;;;;;;;;;;2109606;28;20763;-77
2022/02/07 02:47:17;;;;;;;;;;;;;;;;;;2110075;28;20121;-77
2022/02/07 02:48:25;;;;;;;;;;;;;;;;;;2109892;28;19928;-76
2022/02/07 02:49:33;;;;;;;;;;;;;;;;;;2109740;28;20184;-76
2022/02/07 02:50:42;;;;;;;;;;;;;;;;;;2109135;28;19928;-76
2022/02/07 02:51:51;;;;;;;;;;;;;;;;;;2102735;28;20628;-76
2022/02/07 02:52:55;;;;;;;;;;;;;;;;;;2102368;28;19966;-76
2022/02/07 02:54:00;;;;;;;;;;;;;;;;;;2109165;28;19992;-77
2022/02/07 02:55:07;;;;;;;;;;;;;;;;;;2109856;28;20046;-77
2022/02/07 02:56:24;;;;;;;;;;;;;;;;;;2109238;28;19935;-77
2022/02/07 02:57:35;;;;;;;;;;;;;;;;;;2109533;28;20054;-78
2022/02/07 02:58:46;;;;;;;;;;;;;;;;;;2109708;28;19928;-78
2022/02/07 02:59:53;;;;;;;;;;;;;;;;;;2103713;28;19932;-78
2022/02/07 03:01:00;;;;;;;;;;;;;;;;;;2109771;28;19983;-77
2022/02/07 03:02:08;;;;;;;;;;;;;;;;;;2110004;28;20009;-77
2022/02/07 03:03:14;;;;;;;;;;;;;;;;;;2109631;28;20062;-77
2022/02/07 03:04:24;;;;;;;;;;;;;;;;;;2108771;28;19928;-77
2022/02/07 03:05:36;;;;;;;;;;;;;;;;;;2103161;28;19928;-77
2022/02/07 03:06:39;;;;;;;;;;;;;;;;;;2102500;28;19968;-78
2022/02/07 03:07:47;;;;;;;;;;;;;;;;;;2102745;28;19932;-77
2022/02/07 03:08:58;;;;;;;;;;;;;;;;;;2103406;28;19929;-77
2022/02/07 03:10:07;;;;;;;;;;;;;;;;;;2103049;28;20050;-78
2022/02/07 03:11:21;;;;;;;;;;;;;;;;;;2103163;28;20118;-78
2022/02/07 03:12:39;;;;;;;;;;;;;;;;;;2109010;28;19924;-77
2022/02/07 03:14:48;;;;;;;;;;;;;;;;;;2109425;28;20743;-77
2022/02/07 03:17:36;;;;;;;;;;;;;;;;;;2109444;28;19936;-77
2022/02/07 03:18:46;;;;;;;;;;;;;;;;;;2108689;28;19978;-77
2022/02/07 03:19:59;;;;;;;;;;;;;;;;;;2109120;28;20009;-77
2022/02/07 03:21:10;;;;;;;;;;;;;;;;;;2109590;28;19925;-77
2022/02/07 03:22:22;;;;;;;;;;;;;;;;;;2109100;28;19931;-77
2022/02/07 03:23:32;;;;;;;;;;;;;;;;;;2103223;28;19928;-77
2022/02/07 03:24:39;;;;;;;;;;;;;;;;;;2102396;28;19959;-77
2022/02/07 03:25:49;;;;;;;;;;;;;;;;;;2101587;28;19936;-77
2022/02/07 03:27:00;;;;;;;;;;;;;;;;;;2108575;28;19932;-77
2022/02/07 03:28:10;;;;;;;;;;;;;;;;;;2108697;28;19931;-77
2022/02/07 03:29:26;;;;;;;;;;;;;;;;;;2108189;28;20005;-77
2022/02/07 03:30:38;;;;;;;;;;;;;;;;;;2108580;28;19931;-77
2022/02/07 03:31:48;;;;;;;;;;;;;;;;;;2107821;28;19929;-76
2022/02/07 03:33:01;;;;;;;;;;;;;;;;;;2102423;28;20664;-77
2022/02/07 03:34:16;;;;;;;;;;;;;;;;;;2103157;28;20010;-77
2022/02/07 03:35:30;;;;;;;;;;;;;;;;;;2108019;28;20744;-77
2022/02/07 03:36:42;;;;;;;;;;;;;;;;;;2108225;28;20175;-77
2022/02/07 03:37:54;;;;;;;;;;;;;;;;;;2108503;28;20706;-76
2022/02/07 03:39:09;;;;;;;;;;;;;;;;;;2107694;28;19934;-76
2022/02/07 03:40:23;;;;;;;;;;;;;;;;;;2104048;28;20162;-76
2022/02/07 03:41:37;;;;;;;;;;;;;;;;;;2109080;28;20617;-77
2022/02/07 03:42:51;;;;;;;;;;;;;;;;;;2109250;28;19929;-77
2022/02/07 03:44:00;;;;;;;;;;;;;;;;;;2108181;28;19976;-77
2022/02/07 03:45:07;;;;;;;;;;;;;;;;;;2100902;28;19929;-77
2022/02/07 03:46:22;;;;;;;;;;;;;;;;;;2100654;28;20628;-77
2022/02/07 03:47:32;;;;;;;;;;;;;;;;;;2100926;28;19971;-77
2022/02/07 03:48:45;;;;;;;;;;;;;;;;;;2101681;28;19924;-77
2022/02/07 03:49:55;;;;;;;;;;;;;;;;;;2096491;28;20662;-77
2022/02/07 03:51:06;;;;;;;;;;;;;;;;;;2096550;28;19929;-77
2022/02/07 03:52:15;;;;;;;;;;;;;;;;;;2096427;28;19952;-77
2022/02/07 03:53:28;;;;;;;;;;;;;;;;;;2096897;28;19929;-76
2022/02/07 03:54:30;;;;;;;;;;;;;;;;;;2095526;28;20003;-76
2022/02/07 03:55:33;;;;;;;;;;;;;;;;;;2094337;28;20705;-77
2022/02/07 03:56:54;;;;;;;;;;;;;;;;;;2096941;28;19978;-77
2022/02/07 03:57:56;;;;;;;;;;;;;;;;;;2097095;28;19929;-77
2022/02/07 03:59:12;;;;;;;;;;;;;;;;;;2095581;28;20700;-77
2022/02/07 04:00:29;;;;;;;;;;;;;;;;;;2097407;28;19936;-77
2022/02/07 04:01:49;;;;;;;;;;;;;;;;;;2102055;28;19925;-77
2022/02/07 04:03:08;;;;;;;;;;;;;;;;;;2101576;28;20633;-77
2022/02/07 04:04:29;;;;;;;;;;;;;;;;;;2101549;28;19929;-77
2022/02/07 04:05:49;;;;;;;;;;;;;;;;;;2101597;28;19933;-77
2022/02/07 04:07:13;;;;;;;;;;;;;;;;;;2101897;28;19929;-76
2022/02/07 04:08:17;;;;;;;;;;;;;;;;;;2101522;28;20750;-77
2022/02/07 04:09:45;;;;;;;;;;;;;;;;;;2101357;28;20751;-77
2022/02/07 04:13:06;;;;;;;;;;;;;;;;;;2092804;28;20788;-77
2022/02/07 04:14:27;;;;;;;;;;;;;;;;;;2093067;28;19925;-77
2022/02/07 04:15:51;;;;;;;;;;;;;;;;;;2102057;28;19928;-77
2022/02/07 04:17:19;;;;;;;;;;;;;;;;;;2102100;28;19936;-77
2022/02/07 04:18:53;;;;;;;;;;;;;;;;;;2101796;28;20006;-77
2022/02/07 04:20:17;;;;;;;;;;;;;;;;;;2093472;28;20011;-77
2022/02/07 04:21:38;;;;;;;;;;;;;;;;;;2093798;28;19932;-77
2022/02/07 04:23:00;;;;;;;;;;;;;;;;;;2092948;28;19929;-77
2022/02/07 04:24:22;;;;;;;;;;;;;;;;;;2093620;28;20608;-77
2022/02/07 04:25:43;;;;;;;;;;;;;;;;;;2093676;28;20589;-78
2022/02/07 04:27:05;;;;;;;;;;;;;;;;;;2093610;28;19936;-77
2022/02/07 04:28:26;;;;;;;;;;;;;;;;;;2093857;28;19926;-77
2022/02/07 04:29:47;;;;;;;;;;;;;;;;;;2093874;28;20704;-77
2022/02/07 04:31:09;;;;;;;;;;;;;;;;;;2093217;28;20672;-77
2022/02/07 04:32:30;;;;;;;;;;;;;;;;;;2090612;28;19976;-77
2022/02/07 04:33:51;;;;;;;;;;;;;;;;;;2093602;28;19929;-77
2022/02/07 04:35:14;;;;;;;;;;;;;;;;;;2093498;28;19935;-77
2022/02/07 04:36:35;;;;;;;;;;;;;;;;;;2093672;28;19995;-77
2022/02/07 04:37:57;;;;;;;;;;;;;;;;;;2093729;28;19925;-77
2022/02/07 04:39:19;;;;;;;;;;;;;;;;;;2093755;28;19929;-76
2022/02/07 04:40:40;;;;;;;;;;;;;;;;;;2093621;28;19933;-76
2022/02/07 04:42:06;;;;;;;;;;;;;;;;;;2093862;28;19926;-77
2022/02/07 04:43:27;;;;;;;;;;;;;;;;;;2092909;28;19925;-77
2022/02/07 04:46:38;;;;;;;;;;;;;;;;;;2093262;28;19925;-77
2022/02/07 04:48:31;;;;;;;;;;;;;;;;;;2093275;28;19929;-77
2022/02/07 04:50:28;;;;;;;;;;;;;;;;;;2093416;28;20664;-77
2022/02/07 04:51:55;;;;;;;;;;;;;;;;;;2092871;28;19936;-77
2022/02/07 04:59:03;;;;;;;;;;;;;;;;;;2093391;28;19933;-78
2022/02/07 05:01:56;;;;;;;;;;;;;;;;;;2093525;28;20648;-77
2022/02/07 05:03:24;;;;;;;;;;;;;;;;;;2093385;28;20059;-77
2022/02/07 05:05:19;;;;;;;;;;;;;;;;;;2093858;28;20051;-77
2022/02/07 05:15:01;;;;;;;;;;;;;;;;;;2093221;28;19929;-77
2022/02/07 05:17:43;;;;;;;;;;;;;;;;;;2093244;28;19932;-77
2022/02/07 05:19:06;;;;;;;;;;;;;;;;;;2095585;28;20088;-77
2022/02/07 05:20:27;;;;;;;;;;;;;;;;;;2098427;28;20664;-77
2022/02/07 05:21:48;;;;;;;;;;;;;;;;;;2101634;28;20055;-77
2022/02/07 05:23:09;;;;;;;;;;;;;;;;;;2101396;28;20043;-77
2022/02/07 05:24:31;;;;;;;;;;;;;;;;;;2101516;28;20776;-77
2022/02/07 05:25:52;;;;;;;;;;;;;;;;;;2101651;28;20051;-77
2022/02/07 05:27:18;;;;;;;;;;;;;;;;;;2101790;28;20010;-77
2022/02/07 05:28:33;;;;;;;;;;;;;;;;;;2101799;28;19925;-77
2022/02/07 05:29:53;;;;;;;;;;;;;;;;;;2101881;28;19932;-77
2022/02/07 05:31:09;;;;;;;;;;;;;;;;;;2101141;28;20022;-77
2022/02/07 05:32:25;;;;;;;;;;;;;;;;;;2096713;28;19936;-77
2022/02/07 05:33:39;;;;;;;;;;;;;;;;;;2096507;28;20003;-77
2022/02/07 05:34:54;;;;;;;;;;;;;;;;;;2096308;28;19925;-77
2022/02/07 05:36:10;;;;;;;;;;;;;;;;;;2096668;28;20675;-77
2022/02/07 05:37:28;;;;;;;;;;;;;;;;;;2101359;28;20035;-77
2022/02/07 05:38:50;;;;;;;;;;;;;;;;;;2100968;28;19924;-76
2022/02/07 05:40:12;;;;;;;;;;;;;;;;;;2101266;28;19929;-75
2022/02/07 05:41:24;;;;;;;;;;;;;;;;;;2101168;28;20751;-76
2022/02/07 05:42:39;;;;;;;;;;;;;;;;;;2101407;28;20067;-77
2022/02/07 05:43:57;;;;;;;;;;;;;;;;;;2101552;28;19924;-78
2022/02/07 05:45:16;;;;;;;;;;;;;;;;;;2099694;28;19925;-77
2022/02/07 05:46:32;;;;;;;;;;;;;;;;;;2084794;28;20000;-77
2022/02/07 05:47:38;;;;;;;;;;;;;;;;;;2084478;28;20043;-76
2022/02/07 05:48:47;;;;;;;;;;;;;;;;;;2084288;28;19929;-76
2022/02/07 05:49:56;;;;;;;;;;;;;;;;;;2086090;28;20771;-76
2022/02/07 05:51:09;;;;;;;;;;;;;;;;;;2090133;28;19976;-75
2022/02/07 05:52:25;;;;;;;;;;;;;;;;;;2084919;28;19930;-76
2022/02/07 05:53:38;;;;;;;;;;;;;;;;;;2084412;28;19925;-76
2022/02/07 05:54:49;;;;;;;;;;;;;;;;;;2084635;28;19933;-76
2022/02/07 05:56:01;;;;;;;;;;;;;;;;;;2087307;28;20715;-76
2022/02/07 05:57:10;;;;;;;;;;;;;;;;;;2089945;28;19940;-76
2022/02/07 05:58:28;;;;;;;;;;;;;;;;;;2085121;28;19926;-76
2022/02/07 05:59:42;;;;;;;;;;;;;;;;;;2084569;28;19926;-77
2022/02/07 06:01:00;;;;;;;;;;;;;;;;;;2084079;28;19929;-77
2022/02/07 06:02:05;;;;;;;;;;;;;;;;;;2084665;28;19925;-76
2022/02/07 06:03:30;;;;;;;;;;;;;;;;;;2084398;28;19937;-76
2022/02/07 06:05:00;;;;;;;;;;;;;;;;;;2084419;28;19925;-77
2022/02/07 06:06:22;;;;;;;;;;;;;;;;;;2091114;28;19929;-76
2022/02/07 06:07:43;;;;;;;;;;;;;;;;;;2087618;28;20003;-77
2022/02/07 06:09:07;;;;;;;;;;;;;;;;;;2085068;28;20622;-76
2022/02/07 06:10:30;;;;;;;;;;;;;;;;;;2084088;28;19929;-75
2022/02/07 06:11:50;;;;;;;;;;;;;;;;;;2083461;28;19976;-78
2022/02/07 06:13:07;;;;;;;;;;;;;;;;;;2089068;28;20019;-77
2022/02/07 06:14:21;;;;;;;;;;;;;;;;;;2089372;28;19925;-78
2022/02/07 06:15:31;;;;;;;;;;;;;;;;;;2085060;28;20787;-78
2022/02/07 06:16:45;;;;;;;;;;;;;;;;;;2084491;28;19946;-77
2022/02/07 06:18:00;;;;;;;;;;;;;;;;;;2076052;28;19926;-78
2022/02/07 06:19:10;;;;;;;;;;;;;;;;;;2084297;28;20051;-77
2022/02/07 06:20:20;;;;;;;;;;;;;;;;;;2085097;28;19930;-77
2022/02/07 06:21:32;;;;;;;;;;;;;;;;;;2085027;28;19936;-77
2022/02/07 06:22:49;;;;;;;;;;;;;;;;;;2085180;28;20590;-77
2022/02/07 06:24:04;;;;;;;;;;;;;;;;;;2085281;28;19926;-77
2022/02/07 06:25:12;;;;;;;;;;;;;;;;;;2085802;28;19925;-77
2022/02/07 06:26:21;;;;;;;;;;;;;;;;;;2085259;28;19988;-77
2022/02/07 06:27:33;;;;;;;;;;;;;;;;;;2085545;28;19929;-77
2022/02/07 06:28:43;;;;;;;;;;;;;;;;;;2084801;28;20709;-77
2022/02/07 06:29:44;;;;;;;;;;;;;;;;;;2084116;28;19934;-77
2022/02/07 06:30:59;;;;;;;;;;;;;;;;;;2085055;28;19999;-77
2022/02/07 06:32:12;;;;;;;;;;;;;;;;;;2082670;28;21166;-77
2022/02/07 06:33:28;;;;;;;;;;;;;;;;;;2080541;28;21243;-77
2022/02/07 06:34:45;;;;;;;;;;;;;;;;;;2077372;28;19930;-77
2022/02/07 06:36:01;;;;;;;;;;;;;;;;;;2078267;28;19929;-76
2022/02/07 06:37:14;;;;;;;;;;;;;;;;;;2078387;28;19936;-75
2022/02/07 06:38:19;;;;;;;;;;;;;;;;;;2081176;28;19929;-75
2022/02/07 06:39:36;;;;;;;;;;;;;;;;;;2078128;28;19939;-76
2022/02/07 06:40:55;;;;;;;;;;;;;;;;;;2081545;28;20755;-76
2022/02/07 06:42:07;;;;;;;;;;;;;;;;;;2082173;28;19926;-76
2022/02/07 06:43:21;;;;;;;;;;;;;;;;;;2079125;28;20064;-75
2022/02/07 06:44:30;;;;;;;;;;;;;;;;;;2080805;28;20740;-75
2022/02/07 06:45:44;;;;;;;;;;;;;;;;;;2087616;28;19929;-77
2022/02/07 06:46:52;;;;;;;;;;;;;;;;;;2096810;28;19924;-76
2022/02/07 06:48:12;;;;;;;;;;;;;;;;;;2097992;28;20071;-78
2022/02/07 06:49:23;;;;;;;;;;;;;;;;;;2095799;28;19968;-65
2022/02/07 06:50:32;;;;;;;;;;;;;;;;;;2094704;28;20006;-65
2022/02/07 06:51:42;;;;;;;;;;;;;;;;;;2091914;28;19988;-68
2022/02/07 06:52:43;;;;;;;;;;;;;;;;;;2091112;28;20783;-69
2022/02/07 06:53:54;;;;;;;;;;;;;;;;;;2091093;28;19929;-66
2022/02/07 06:55:09;;;;;;;;;;;;;;;;;;2092241;28;19983;-63
2022/02/07 06:56:20;;;;;;;;;;;;;;;;;;2095492;28;19925;-65
2022/02/07 06:57:31;;;;;;;;;;;;;;;;;;2098091;28;19931;-66
2022/02/07 06:58:33;;;;;;;;;;;;;;;;;;2099186;28;19925;-63
2022/02/07 06:59:42;;;;;;;;;;;;;;;;;;2091202;28;20740;-64
2022/02/07 07:00:51;;;;;;;;;;;;;;;;;;2097209;28;20043;-66
2022/02/07 07:02:00;;;;;;;;;;;;;;;;;;2091452;28;20130;-66
2022/02/07 07:03:16;;;;;;;;;;;;;;;;;;2094232;28;19925;-68
2022/02/07 07:04:28;;;;;;;;;;;;;;;;;;2091491;28;20790;-70
2022/02/07 07:05:40;;;;;;;;;;;;;;;;;;2092053;28;19936;-68
2022/02/07 07:06:55;;;;;;;;;;;;;;;;;;2094682;28;19929;-71
2022/02/07 07:08:09;;;;;;;;;;;;;;;;;;2092171;28;19933;-63
2022/02/07 07:09:23;;;;;;;;;;;;;;;;;;2092201;28;19936;-66
2022/02/07 07:10:40;;;;;;;;;;;;;;;;;;2092419;28;20008;-66
2022/02/07 07:12:01;;;;;;;;;;;;;;;;;;2092612;28;20055;-64
2022/02/07 07:13:16;;;;;;;;;;;;;;;;;;2095736;28;20071;-66
2022/02/07 07:14:45;;;;;;;;;;;;;;;;;;2095668;28;20724;-67
2022/02/07 07:16:13;;;;;;;;;;;;;;;;;;2094641;28;20819;-64
2022/02/07 07:17:22;;;;;;;;;;;;;;;;;;2091567;28;19971;-68
2022/02/07 07:18:32;;;;;;;;;;;;;;;;;;2090992;28;19932;-67
2022/02/07 07:19:42;;;;;;;;;;;;;;;;;;2099506;28;20768;-64
2022/02/07 07:20:55;;;;;;;;;;;;;;;;;;2091493;28;19936;-66
2022/02/07 07:22:07;;;;;;;;;;;;;;;;;;2097479;28;19929;-64
2022/02/07 07:23:08;;;;;;;;;;;;;;;;;;2093872;28;19983;-68
2022/02/07 07:24:20;;;;;;;;;;;;;;;;;;2094389;28;20066;-67
2022/02/07 07:25:36;;;;;;;;;;;;;;;;;;2092004;28;21641;-64
2022/02/07 07:26:48;;;;;;;;;;;;;;;;;;2094110;28;20679;-66
2022/02/07 07:28:06;;;;;;;;;;;;;;;;;;2096180;28;20602;-77
2022/02/07 07:29:18;;;;;;;;;;;;;;;;;;2099417;28;20202;-71
2022/02/07 07:30:20;;;;;;;;;;;;;;;;;;2094778;28;19975;-66
2022/02/07 07:31:39;;;;;;;;;;;;;;;;;;2092246;28;19929;-63
2022/02/07 07:32:46;;;;;;;;;;;;;;;;;;2093268;28;19929;-64
2022/02/07 07:33:56;;;;;;;;;;;;;;;;;;2096391;28;20743;-69
2022/02/07 07:35:03;;;;;;;;;;;;;;;;;;2097855;28;19929;-64
2022/02/07 07:36:12;;;;;;;;;;;;;;;;;;2098800;28;19932;-63
2022/02/07 07:37:22;;;;;;;;;;;;;;;;;;2096791;28;19925;-63
2022/02/07 07:38:31;;;;;;;;;;;;;;;;;;2095100;28;19988;-65
2022/02/07 07:39:33;;;;;;;;;;;;;;;;;;2095693;28;19940;-64
2022/02/07 07:40:35;;;;;;;;;;;;;;;;;;2093756;28;20869;-63
2022/02/07 07:41:45;;;;;;;;;;;;;;;;;;2097219;28;19925;-63
2022/02/07 07:42:54;;;;;;;;;;;;;;;;;;2097373;28;20034;-73
2022/02/07 07:44:02;;;;;;;;;;;;;;;;;;2090954;28;20846;-67
2022/02/07 07:45:11;;;;;;;;;;;;;;;;;;2095051;28;19936;-65
2022/02/07 07:46:25;;;;;;;;;;;;;;;;;;2095715;28;19929;-63
2022/02/07 07:47:33;;;;;;;;;;;;;;;;;;2093098;28;19932;-62
2022/02/07 07:48:48;;;;;;;;;;;;;;;;;;2108099;22;20027;-68
2022/02/07 07:50:00;;;;;;;;;;;;;;;;;;2101377;28;20050;-65
2022/02/07 07:51:07;;;;;;;;;;;;;;;;;;2100978;28;20007;-66
2022/02/07 07:52:26;;;;;;;;;;;;;;;;;;2100535;28;19979;-62
2022/02/07 07:54:55;;;;;;;;;;;;;;;;;;2103286;28;19929;-64
2022/02/07 08:01:49;;;;;;;;;;;;;;;;;;2099169;28;19929;-61
2022/02/07 08:02:56;;;;;;;;;;;;;;;;;;2100996;28;19925;-63
2022/02/07 08:03:59;;;;;;;;;;;;;;;;;;2103759;28;19929;-61
2022/02/07 08:05:15;;;;;;;;;;;;;;;;;;2103152;22;19925;-62
2022/02/07 08:06:36;;;;;;;;;;;;;;;;;;2105594;28;19968;-61
2022/02/07 08:07:50;;;;;;;;;;;;;;;;;;2109685;28;19936;-62
2022/02/07 08:11:20;;;;;;;;;;;;;;;;;;2086338;28;19937;-61
2022/02/07 08:12:26;;;;;;;;;;;;;;;;;;2085127;28;20026;-64
2022/02/07 08:13:34;;;;;;;;;;;;;;;;;;2084494;28;19932;-61
2022/02/07 08:14:39;;;;;;;;;;;;;;;;;;2087551;28;19960;-63
2022/02/07 08:15:44;;;;;;;;;;;;;;;;;;2088008;28;19975;-61
2022/02/07 08:16:52;;;;;;;;;;;;;;;;;;2085746;28;19925;-62
2022/02/07 08:17:56;;;;;;;;;;;;;;;;;;2081655;28;19936;-61
2022/02/07 08:19:07;;;;;;;;;;;;;;;;;;2080985;28;20004;-61
2022/02/07 08:20:12;;;;;;;;;;;;;;;;;;2083103;28;20067;-62
2022/02/07 08:21:20;;;;;;;;;;;;;;;;;;2084575;28;20788;-67
2022/02/07 08:23:26;;;;;;;;;;;;;;;;;;2105120;23;19929;-60
2022/02/07 08:24:31;;;;;;;;;;;;;;;;;;2107838;22;20640;-65
2022/02/07 08:25:37;;;;;;;;;;;;;;;;;;2104648;28;19929;-65
2022/02/07 08:26:44;;;;;;;;;;;;;;;;;;2109314;28;19929;-62
2022/02/07 08:27:52;;;;;;;;;;;;;;;;;;2108833;22;19929;-64
2022/02/07 08:29:01;;;;;;;;;;;;;;;;;;2104846;28;19932;-64
2022/02/07 08:30:05;;;;;;;;;;;;;;;;;;2107103;28;20067;-60
2022/02/07 08:31:12;;;;;;;;;;;;;;;;;;2106907;28;19932;-69
2022/02/07 08:32:17;;;;;;;;;;;;;;;;;;2101012;28;20047;-65
2022/02/07 08:33:26;;;;;;;;;;;;;;;;;;2102285;28;19941;-63
2022/02/07 08:34:33;;;;;;;;;;;;;;;;;;2108163;28;19986;-62
2022/02/07 08:35:39;;;;;;;;;;;;;;;;;;2107033;28;20051;-69
2022/02/07 08:36:45;;;;;;;;;;;;;;;;;;2107631;28;19928;-62
2022/02/07 08:37:52;;;;;;;;;;;;;;;;;;2109605;28;19924;-60
2022/02/07 08:38:58;;;;;;;;;;;;;;;;;;2108915;28;20636;-63
2022/02/07 08:40:06;;;;;;;;;;;;;;;;;;2107444;28;19957;-61
2022/02/07 08:41:15;;;;;;;;;;;;;;;;;;2108417;28;20002;-65
2022/02/07 08:42:25;;;;;;;;;;;;;;;;;;2110806;28;20620;-64
2022/02/07 08:43:31;;;;;;;;;;;;;;;;;;2113133;28;20663;-63
2022/02/07 08:44:37;;;;;;;;;;;;;;;;;;2106697;28;19936;-70
2022/02/07 08:45:43;;;;;;;;;;;;;;;;;;2109351;28;19924;-66
2022/02/07 08:46:50;;;;;;;;;;;;;;;;;;2110057;22;19985;-78
2022/02/07 08:47:58;;;;;;;;;;;;;;;;;;2111616;28;19928;-65
2022/02/07 08:49:04;;;;;;;;;;;;;;;;;;2103616;28;19932;-71
2022/02/07 08:50:10;;;;;;;;;;;;;;;;;;2107362;28;19925;-67
2022/02/07 08:51:19;;;;;;;;;;;;;;;;;;2108679;28;19929;-64
2022/02/07 08:52:21;;;;;;;;;;;;;;;;;;2106423;28;19936;-72
2022/02/07 08:53:35;;;;;;;;;;;;;;;;;;2104547;28;20718;-72
2022/02/07 08:54:41;;;;;;;;;;;;;;;;;;2108340;28;20852;-65
2022/02/07 08:55:51;;;;;;;;;;;;;;;;;;2108996;28;19932;-75
2022/02/07 08:58:25;;;;;;;;;;;;;;;;;;2103169;28;19932;-64
2022/02/07 08:59:39;;;;;;;;;;;;;;;;;;2105590;28;19931;-62
2022/02/07 09:04:40;;;;;;;;;;;;;;;;;;2107421;28;20014;-60
2022/02/07 09:06:32;;;;;;;;;;;;;;;;;;2110038;28;19928;-67
2022/02/07 09:07:10;;;;;;;;;;;;;;;;;;2102672;28;19929;-61
2022/02/07 09:09:21;;;;;;;;;;;;;;;;;;2107843;28;20035;-62
2022/02/07 09:10:25;;;;;;;;;;;;;;;;;;2111376;28;19913;-63
2022/02/07 09:11:27;;;;;;;;;;;;;;;;;;2111258;28;20813;-62
2022/02/07 09:12:28;;;;;;;;;;;;;;;;;;2110629;28;20058;-80
2022/02/07 09:13:37;;;;;;;;;;;;;;;;;;2110412;28;19925;-77
2022/02/07 09:14:55;;;;;;;;;;;;;;;;;;2104220;28;19987;-74
2022/02/07 09:17:17;;;;;;;;;;;;;;;;;;2107356;28;19936;-66
2022/02/07 09:18:24;;;;;;;;;;;;;;;;;;2114156;28;20039;-64
2022/02/07 09:19:31;;;;;;;;;;;;;;;;;;2106222;28;20006;-74
2022/02/07 09:20:45;;;;;;;;;;;;;;;;;;2105972;28;19984;-80
2022/02/07 09:22:06;;;;;;;;;;;;;;;;;;2107924;28;20088;-73
2022/02/07 09:24:28;;;;;;;;;;;;;;;;;;2113627;22;19929;-70
2022/02/07 09:25:48;;;;;;;;;;;;;;;;;;2100495;28;20809;-68
2022/02/07 09:27:10;;;;;;;;;;;;;;;;;;2098434;28;19925;-63
2022/02/07 09:28:31;;;;;;;;;;;;;;;;;;2094449;28;19932;-62
2022/02/07 09:29:53;;;;;;;;;;;;;;;;;;2103669;28;19935;-61
2022/02/07 09:31:14;;;;;;;;;;;;;;;;;;2101350;28;20815;-61
2022/02/07 09:32:35;;;;;;;;;;;;;;;;;;2097926;28;19932;-64
2022/02/07 09:33:57;;;;;;;;;;;;;;;;;;2112058;28;19994;-64
2022/02/07 09:35:18;;;;;;;;;;;;;;;;;;2095434;28;19929;-68
2022/02/07 09:36:39;;;;;;;;;;;;;;;;;;2102505;28;19925;-64
2022/02/07 09:38:01;;;;;;;;;;;;;;;;;;2107270;28;19932;-65
2022/02/07 09:39:29;;;;;;;;;;;;;;;;;;2100813;28;19928;-64
2022/02/07 09:40:52;;;;;;;;;;;;;;;;;;2106394;28;20685;-61
2022/02/07 09:42:13;;;;;;;;;;;;;;;;;;2111787;28;20026;-62
2022/02/07 09:43:42;;;;;;;;;;;;;;;;;;2104618;28;19929;-61
2022/02/07 09:45:12;;;;;;;;;;;;;;;;;;2099473;28;19936;-65
2022/02/07 09:46:43;;;;;;;;;;;;;;;;;;2108315;28;20022;-76
2022/02/07 09:48:05;;;;;;;;;;;;;;;;;;2101847;28;19929;-61
2022/02/07 09:49:27;;;;;;;;;;;;;;;;;;2124170;22;19929;-63
2022/02/07 09:50:49;;;;;;;;;;;;;;;;;;2114139;28;20015;-62
2022/02/07 09:52:10;;;;;;;;;;;;;;;;;;2105891;28;20018;-65
2022/02/07 09:53:33;;;;;;;;;;;;;;;;;;2110353;28;20807;-62
2022/02/07 09:54:55;;;;;;;;;;;;;;;;;;2108149;28;20588;-79
2022/02/07 09:56:17;;;;;;;;;;;;;;;;;;2110551;28;19935;-62
2022/02/07 09:57:41;;;;;;;;;;;;;;;;;;2105773;28;19958;-61
2022/02/07 09:59:02;;;;;;;;;;;;;;;;;;2106540;28;19935;-61
2022/02/07 10:00:28;;;;;;;;;;;;;;;;;;2105956;28;19929;-63